Time;durP1;ratioP1;P1;durP2;ratioP2;P2;SDS_P1;SDS_P2;PMS_P1;PMS_P2;Temp;Humidity;BMP_temperature;BMP_pressure;BME280_temperature;BME280_humidity;BME280_pressure;Samples;Min_cycle;Max_cycle;Signal;HPM_P1;HPM_P2
2023/12/06 00:00:20;;;;;;;9.65;5.63;;;2.60;99.90;;;;;;5146358;27;20035;-47
2023/12/06 00:02:45;;;;;;;8.40;4.88;;;2.50;99.90;;;;;;5146757;27;20031;-44
2023/12/06 00:05:11;;;;;;;10.85;5.15;;;2.50;99.90;;;;;;5146559;27;20208;-46
2023/12/06 00:07:40;;;;;;;10.52;5.70;;;2.40;99.90;;;;;;5146219;27;20111;-47
2023/12/06 00:10:06;;;;;;;10.82;5.60;;;2.40;99.90;;;;;;5145749;28;20023;-46
2023/12/06 00:12:32;;;;;;;9.65;5.25;;;2.40;99.90;;;;;;5146673;27;20184;-46
2023/12/06 00:14:57;;;;;;;11.13;6.10;;;2.40;99.90;;;;;;5146457;28;20058;-49
2023/12/06 00:17:23;;;;;;;12.23;6.40;;;2.40;99.90;;;;;;5145792;28;20086;-47
2023/12/06 00:19:49;;;;;;;15.32;6.88;;;2.40;99.90;;;;;;5146634;28;20035;-47
2023/12/06 00:22:14;;;;;;;14.73;7.40;;;2.40;99.90;;;;;;5146674;28;20105;-49
2023/12/06 00:24:40;;;;;;;15.23;7.85;;;2.30;99.90;;;;;;5145505;28;20271;-47
2023/12/06 00:27:06;;;;;;;16.20;8.07;;;2.30;99.90;;;;;;5146602;28;20196;-49
2023/12/06 00:29:31;;;;;;;10.88;7.05;;;2.30;99.90;;;;;;5146487;28;20031;-48
2023/12/06 00:31:57;;;;;;;8.35;4.97;;;2.20;99.90;;;;;;5145473;28;20015;-47
2023/12/06 00:34:23;;;;;;;7.28;5.07;;;2.20;99.90;;;;;;5145538;28;20184;-46
2023/12/06 00:36:48;;;;;;;7.72;4.65;;;2.20;99.90;;;;;;5146472;28;20035;-48
2023/12/06 00:39:14;;;;;;;8.85;4.45;;;2.20;99.90;;;;;;5146631;28;20074;-49
2023/12/06 00:41:41;;;;;;;9.02;5.10;;;2.20;99.90;;;;;;5145480;28;20031;-47
2023/12/06 00:44:07;;;;;;;9.38;4.72;;;2.10;99.90;;;;;;5146452;27;20039;-44
2023/12/06 00:46:33;;;;;;;8.88;5.15;;;2.20;99.90;;;;;;5145345;28;20069;-45
2023/12/06 00:48:59;;;;;;;8.50;4.53;;;2.10;99.90;;;;;;5146139;28;20027;-46
2023/12/06 00:51:26;;;;;;;12.80;4.93;;;2.20;99.90;;;;;;5146144;28;20034;-47
2023/12/06 00:53:52;;;;;;;9.95;5.28;;;2.20;99.90;;;;;;5145953;28;20019;-47
2023/12/06 00:56:18;;;;;;;11.48;5.68;;;2.20;99.90;;;;;;5146295;28;20027;-48
2023/12/06 00:58:43;;;;;;;10.30;5.55;;;2.10;99.90;;;;;;5146351;28;20035;-48
2023/12/06 01:01:11;;;;;;;10.98;5.78;;;2.10;99.90;;;;;;5145189;28;20285;-46
2023/12/06 01:03:37;;;;;;;10.45;5.63;;;2.20;99.90;;;;;;5128009;28;20077;-45
2023/12/06 01:06:03;;;;;;;10.32;6.13;;;2.10;99.90;;;;;;5129365;27;20043;-45
2023/12/06 01:08:28;;;;;;;9.75;5.20;;;2.20;99.90;;;;;;5148674;27;20059;-46
2023/12/06 01:10:54;;;;;;;10.13;5.05;;;2.10;99.90;;;;;;5149843;27;20027;-45
2023/12/06 01:13:19;;;;;;;9.80;5.20;;;2.10;99.90;;;;;;5150056;27;20344;-45
2023/12/06 01:15:45;;;;;;;10.68;5.20;;;2.00;99.90;;;;;;5149926;27;20035;-46
2023/12/06 01:18:11;;;;;;;12.32;5.57;;;2.00;99.90;;;;;;5149924;27;20019;-46
2023/12/06 01:20:38;;;;;;;13.38;6.50;;;2.00;99.90;;;;;;5149226;27;20023;-45
2023/12/06 01:23:07;;;;;;;11.00;5.68;;;1.90;99.90;;;;;;5149741;27;20031;-45
2023/12/06 01:25:33;;;;;;;14.73;6.38;;;2.00;99.90;;;;;;5148754;27;20023;-45
2023/12/06 01:27:59;;;;;;;11.90;6.30;;;2.00;99.90;;;;;;5149649;27;20314;-45
2023/12/06 01:30:24;;;;;;;14.18;6.63;;;1.90;99.90;;;;;;5149626;27;20031;-46
2023/12/06 01:32:50;;;;;;;14.90;7.32;;;1.90;99.90;;;;;;5149292;27;20151;-47
2023/12/06 01:35:16;;;;;;;17.33;7.70;;;1.90;99.90;;;;;;5149658;27;20015;-45
2023/12/06 01:37:41;;;;;;;17.58;7.28;;;1.90;99.90;;;;;;5149504;27;20037;-45
2023/12/06 01:40:08;;;;;;;15.32;7.57;;;1.90;99.90;;;;;;5149516;27;20050;-45
2023/12/06 01:42:34;;;;;;;16.23;7.65;;;1.80;99.90;;;;;;5148648;27;20057;-47
2023/12/06 01:45:00;;;;;;;15.32;7.57;;;1.80;99.90;;;;;;5149260;27;20062;-45
2023/12/06 01:47:26;;;;;;;14.10;7.10;;;1.80;99.90;;;;;;5149088;27;20289;-45
2023/12/06 01:49:53;;;;;;;17.17;7.72;;;1.90;99.90;;;;;;5149321;27;20046;-46
2023/12/06 01:52:18;;;;;;;11.70;6.88;;;1.90;99.90;;;;;;5148628;27;20031;-46
2023/12/06 01:54:44;;;;;;;12.73;6.43;;;1.80;99.90;;;;;;5149223;27;20034;-45
2023/12/06 01:57:10;;;;;;;10.93;6.45;;;1.90;99.90;;;;;;5149054;27;20034;-45
2023/12/06 01:59:36;;;;;;;11.45;6.40;;;1.90;99.90;;;;;;5148923;27;20395;-45
2023/12/06 02:02:02;;;;;;;11.45;6.32;;;1.90;99.90;;;;;;5130904;27;20030;-46
2023/12/06 02:04:28;;;;;;;12.70;6.38;;;1.90;99.90;;;;;;5148929;27;20124;-46
2023/12/06 02:06:53;;;;;;;13.15;6.57;;;1.90;99.90;;;;;;5148820;27;20055;-46
2023/12/06 02:09:19;;;;;;;10.88;6.22;;;1.90;99.90;;;;;;5147604;27;20034;-45
2023/12/06 02:11:45;;;;;;;9.98;6.18;;;1.80;99.90;;;;;;5147661;27;20023;-45
2023/12/06 02:14:10;;;;;;;11.13;6.30;;;1.80;99.90;;;;;;5147881;27;20289;-51
2023/12/06 02:16:36;;;;;;;12.40;6.30;;;1.80;99.90;;;;;;5148648;27;20019;-46
2023/12/06 02:19:02;;;;;;;10.35;6.20;;;1.70;99.90;;;;;;5148571;27;20023;-45
2023/12/06 02:21:27;;;;;;;9.95;5.97;;;1.80;99.90;;;;;;5130432;27;20095;-50
2023/12/06 02:23:53;;;;;;;10.50;5.85;;;1.80;99.90;;;;;;5148142;27;20197;-53
2023/12/06 02:26:19;;;;;;;10.30;5.65;;;1.70;99.90;;;;;;5130404;27;20024;-45
2023/12/06 02:28:44;;;;;;;11.38;6.32;;;1.70;99.90;;;;;;5148166;27;20185;-46
2023/12/06 02:31:10;;;;;;;11.57;5.97;;;1.70;99.90;;;;;;5148106;27;20099;-45
2023/12/06 02:33:36;;;;;;;10.93;6.00;;;1.60;99.90;;;;;;5147167;27;20019;-45
2023/12/06 02:36:02;;;;;;;13.35;6.60;;;1.60;99.90;;;;;;5148371;27;20188;-45
2023/12/06 02:38:28;;;;;;;12.07;6.85;;;1.70;99.90;;;;;;5113199;27;20019;-45
2023/12/06 02:40:53;;;;;;;12.02;6.55;;;1.70;99.90;;;;;;5147322;27;20312;-46
2023/12/06 02:43:19;;;;;;;10.90;6.22;;;1.70;99.90;;;;;;5147449;27;20165;-46
2023/12/06 02:45:45;;;;;;;9.82;6.40;;;1.70;99.90;;;;;;5146997;27;20035;-45
2023/12/06 02:48:10;;;;;;;16.45;7.13;;;1.70;99.90;;;;;;5147107;27;20023;-45
2023/12/06 02:54:10;;;;;;;15.88;7.28;;;1.60;99.90;;;;;;5148095;27;20132;-45
2023/12/06 02:56:36;;;;;;;9.98;5.95;;;1.50;99.90;;;;;;5147493;27;20034;-46
2023/12/06 02:59:01;;;;;;;13.23;6.68;;;1.50;99.90;;;;;;5147696;27;20085;-45
2023/12/06 03:01:27;;;;;;;11.52;6.28;;;1.50;99.90;;;;;;5147744;27;20090;-46
2023/12/06 03:03:53;;;;;;;12.32;6.35;;;1.50;99.90;;;;;;5147931;27;20035;-47
2023/12/06 03:06:18;;;;;;;11.18;5.82;;;1.50;99.90;;;;;;5147845;27;20023;-45
2023/12/06 03:08:44;;;;;;;13.00;6.00;;;1.50;99.90;;;;;;5147492;27;20244;-48
2023/12/06 03:11:09;;;;;;;12.65;5.85;;;1.50;99.90;;;;;;5147354;27;20300;-48
2023/12/06 03:13:35;;;;;;;11.55;5.80;;;1.40;99.90;;;;;;5147288;27;20076;-45
2023/12/06 03:16:01;;;;;;;12.60;6.13;;;1.30;99.90;;;;;;5146535;27;20050;-45
2023/12/06 03:18:28;;;;;;;10.50;5.85;;;1.40;99.90;;;;;;5147447;27;20046;-45
2023/12/06 03:20:53;;;;;;;13.05;6.57;;;1.40;99.90;;;;;;5147407;27;20069;-46
2023/12/06 03:23:19;;;;;;;14.68;6.32;;;1.40;99.90;;;;;;5147281;27;20284;-45
2023/12/06 03:25:45;;;;;;;11.98;6.05;;;1.40;99.90;;;;;;5147404;27;20058;-45
2023/12/06 03:28:10;;;;;;;13.40;5.90;;;1.40;99.90;;;;;;5146548;27;20038;-45
2023/12/06 03:30:36;;;;;;;12.52;6.32;;;1.40;99.90;;;;;;5147318;27;20027;-46
2023/12/06 03:33:02;;;;;;;9.52;5.93;;;1.40;99.90;;;;;;5147063;27;20019;-47
2023/12/06 03:35:27;;;;;;;12.25;6.10;;;1.40;99.90;;;;;;5147237;27;20020;-46
2023/12/06 03:37:54;;;;;;;14.00;6.70;;;1.40;99.90;;;;;;5146322;27;20336;-45
2023/12/06 03:40:20;;;;;;;12.18;5.97;;;1.40;99.90;;;;;;5146108;27;20031;-47
2023/12/06 03:42:46;;;;;;;13.95;6.72;;;1.40;99.90;;;;;;5147075;27;20323;-45
2023/12/06 03:45:14;;;;;;;16.42;6.15;;;1.40;99.90;;;;;;5146922;27;20027;-46
2023/12/06 03:47:40;;;;;;;11.18;6.18;;;1.40;99.90;;;;;;5146957;27;20180;-45
2023/12/06 03:50:06;;;;;;;11.57;6.00;;;1.40;99.90;;;;;;5147065;27;20099;-45
2023/12/06 03:52:32;;;;;;;13.57;6.15;;;1.40;99.90;;;;;;5146927;27;20034;-45
2023/12/06 03:54:58;;;;;;;14.63;6.07;;;1.30;99.90;;;;;;5146937;27;20327;-45
2023/12/06 03:57:23;;;;;;;11.13;6.20;;;1.30;99.90;;;;;;5146801;27;20019;-46
2023/12/06 03:59:49;;;;;;;11.13;5.80;;;1.20;99.90;;;;;;5146629;27;20027;-45
2023/12/06 04:02:15;;;;;;;13.75;5.93;;;1.30;99.90;;;;;;5146892;27;20039;-46
2023/12/06 04:04:41;;;;;;;13.18;6.32;;;1.20;99.90;;;;;;5146813;27;20034;-45
2023/12/06 04:07:07;;;;;;;13.80;6.47;;;1.20;99.90;;;;;;5145766;27;20047;-45
2023/12/06 04:09:32;;;;;;;13.40;7.20;;;1.20;99.90;;;;;;5146810;27;20080;-45
2023/12/06 04:11:59;;;;;;;12.93;6.53;;;1.20;99.90;;;;;;5146811;28;20181;-45
2023/12/06 04:14:24;;;;;;;12.68;6.28;;;1.20;99.90;;;;;;5146867;28;20023;-45
2023/12/06 04:16:50;;;;;;;13.07;6.38;;;1.20;99.90;;;;;;5146728;28;20039;-45
2023/12/06 04:19:16;;;;;;;11.93;5.70;;;1.20;99.90;;;;;;5146539;28;20038;-45
2023/12/06 04:21:42;;;;;;;10.38;5.70;;;1.20;99.90;;;;;;5146762;28;20107;-45
2023/12/06 04:24:07;;;;;;;11.02;6.38;;;1.20;99.90;;;;;;5146741;28;20038;-46
2023/12/06 04:26:33;;;;;;;14.15;5.95;;;1.20;99.90;;;;;;5146699;28;20049;-45
2023/12/06 04:28:59;;;;;;;12.32;5.70;;;1.20;99.90;;;;;;5146474;28;20154;-46
2023/12/06 04:31:24;;;;;;;10.35;5.88;;;1.20;99.90;;;;;;5146171;28;20197;-45
2023/12/06 04:33:50;;;;;;;13.95;6.22;;;1.20;99.90;;;;;;5146572;28;20195;-45
2023/12/06 04:36:16;;;;;;;11.70;5.78;;;1.20;99.90;;;;;;5145578;28;20329;-46
2023/12/06 04:38:41;;;;;;;12.15;5.60;;;1.10;99.90;;;;;;5145248;28;20312;-47
2023/12/06 04:41:07;;;;;;;10.50;5.13;;;1.10;99.90;;;;;;5147993;27;20023;-45
2023/12/06 04:43:34;;;;;;;11.80;5.80;;;1.10;99.90;;;;;;5149685;27;20031;-45
2023/12/06 04:45:59;;;;;;;11.70;5.25;;;1.10;99.90;;;;;;5150567;27;20042;-45
2023/12/06 04:48:25;;;;;;;9.00;5.03;;;1.00;99.90;;;;;;5132071;27;20023;-45
2023/12/06 04:50:51;;;;;;;9.35;4.88;;;1.00;99.90;;;;;;5150364;27;20079;-45
2023/12/06 04:53:17;;;;;;;11.75;5.68;;;1.00;99.90;;;;;;5150336;27;20027;-46
2023/12/06 04:55:43;;;;;;;10.95;5.65;;;1.00;99.90;;;;;;5150415;27;20169;-45
2023/12/06 04:58:09;;;;;;;12.60;5.13;;;1.10;99.90;;;;;;5150531;27;20288;-45
2023/12/06 05:00:36;;;;;;;10.55;5.68;;;1.10;99.90;;;;;;5150328;27;20035;-45
2023/12/06 05:03:02;;;;;;;10.38;5.75;;;1.10;99.90;;;;;;5150470;27;20079;-45
2023/12/06 05:05:28;;;;;;;11.43;5.05;;;1.10;99.90;;;;;;5149922;27;20023;-45
2023/12/06 05:07:55;;;;;;;10.25;4.70;;;1.10;99.90;;;;;;5148626;27;20047;-46
2023/12/06 05:10:21;;;;;;;10.07;5.32;;;1.10;99.90;;;;;;5150021;27;20090;-47
2023/12/06 05:12:47;;;;;;;11.82;5.05;;;1.10;99.90;;;;;;5149861;27;20037;-45
2023/12/06 05:15:13;;;;;;;12.25;5.40;;;1.10;99.90;;;;;;5149919;27;20230;-45
2023/12/06 05:17:39;;;;;;;11.05;5.00;;;1.10;99.90;;;;;;5149079;27;20082;-45
2023/12/06 05:20:06;;;;;;;12.80;4.82;;;1.20;99.90;;;;;;5149945;27;20018;-45
2023/12/06 05:22:32;;;;;;;8.98;4.50;;;1.20;99.90;;;;;;5149266;27;20080;-44
2023/12/06 05:24:57;;;;;;;10.05;5.38;;;1.20;99.90;;;;;;5149713;27;20023;-45
2023/12/06 05:27:23;;;;;;;9.68;5.25;;;1.10;99.90;;;;;;5149791;27;20019;-46
2023/12/06 05:29:49;;;;;;;11.27;5.63;;;1.10;99.90;;;;;;5149629;27;20031;-45
2023/12/06 05:32:14;;;;;;;8.45;4.55;;;1.10;99.90;;;;;;5149523;27;20090;-46
2023/12/06 05:34:40;;;;;;;10.00;4.90;;;1.10;99.90;;;;;;5149306;27;20019;-45
2023/12/06 05:37:06;;;;;;;10.57;5.45;;;1.00;99.90;;;;;;5149317;27;20027;-45
2023/12/06 05:39:31;;;;;;;8.43;4.80;;;1.00;99.90;;;;;;5149514;27;20019;-45
2023/12/06 05:41:57;;;;;;;12.73;5.10;;;1.00;99.90;;;;;;5149585;27;20034;-45
2023/12/06 05:44:23;;;;;;;11.18;4.93;;;1.10;99.90;;;;;;5148394;27;20035;-45
2023/12/06 05:46:48;;;;;;;9.30;4.43;;;1.00;99.90;;;;;;5149274;27;20050;-46
2023/12/06 05:49:15;;;;;;;10.45;4.45;;;1.00;99.90;;;;;;5148257;27;20023;-46
2023/12/06 05:51:41;;;;;;;7.65;4.63;;;1.00;99.90;;;;;;5148273;27;20166;-46
2023/12/06 05:54:06;;;;;;;9.52;4.45;;;1.10;99.90;;;;;;5149366;27;20034;-45
2023/12/06 05:56:32;;;;;;;7.80;4.53;;;1.10;99.90;;;;;;5149199;27;20087;-45
2023/12/06 05:58:57;;;;;;;8.38;4.15;;;1.00;99.90;;;;;;5149018;27;20054;-45
2023/12/06 06:01:23;;;;;;;8.70;4.22;;;1.00;99.90;;;;;;5148997;27;20310;-45
2023/12/06 06:03:49;;;;;;;7.47;4.15;;;1.10;99.90;;;;;;5148928;27;20027;-45
2023/12/06 06:06:15;;;;;;;9.05;4.15;;;1.00;99.90;;;;;;5148503;27;20213;-46
2023/12/06 06:08:40;;;;;;;6.88;4.00;;;1.00;99.90;;;;;;5148373;27;20066;-45
2023/12/06 06:11:06;;;;;;;7.65;4.15;;;1.00;99.90;;;;;;5148800;27;20030;-44
2023/12/06 06:13:31;;;;;;;6.85;4.13;;;1.00;99.90;;;;;;5148685;27;20096;-45
2023/12/06 06:15:57;;;;;;;8.25;3.83;;;1.00;99.90;;;;;;5148837;27;20023;-47
2023/12/06 06:18:23;;;;;;;8.02;3.95;;;1.00;99.90;;;;;;5148740;27;20020;-46
2023/12/06 06:20:49;;;;;;;8.52;4.28;;;1.00;99.90;;;;;;5148362;27;20038;-45
2023/12/06 06:23:14;;;;;;;8.23;4.13;;;1.00;99.90;;;;;;5147695;27;20232;-45
2023/12/06 06:25:40;;;;;;;8.80;4.70;;;0.90;99.90;;;;;;5148428;27;20086;-45
2023/12/06 06:28:06;;;;;;;6.57;3.95;;;0.90;99.90;;;;;;5149029;27;20027;-48
2023/12/06 06:30:31;;;;;;;8.55;4.25;;;1.00;99.90;;;;;;5148502;27;20051;-46
2023/12/06 06:32:57;;;;;;;8.15;4.18;;;1.00;99.90;;;;;;5148374;27;20273;-45
2023/12/06 06:35:23;;;;;;;7.32;3.95;;;0.90;99.90;;;;;;5147501;27;20073;-45
2023/12/06 06:37:49;;;;;;;9.23;4.50;;;0.90;99.90;;;;;;5148212;27;20038;-45
2023/12/06 06:40:14;;;;;;;14.38;4.55;;;0.90;99.90;;;;;;5147121;27;20015;-45
2023/12/06 06:42:41;;;;;;;8.52;4.70;;;0.90;99.90;;;;;;5146936;27;20031;-45
2023/12/06 06:45:08;;;;;;;10.82;4.72;;;1.00;99.90;;;;;;5147848;27;20031;-46
2023/12/06 06:47:36;;;;;;;8.43;5.13;;;1.00;99.90;;;;;;5147167;27;20023;-44
2023/12/06 06:50:04;;;;;;;7.85;4.28;;;1.00;99.90;;;;;;5148121;27;20042;-45
2023/12/06 06:52:30;;;;;;;9.30;4.53;;;1.10;99.90;;;;;;5147868;27;20058;-44
2023/12/06 06:54:56;;;;;;;9.85;4.80;;;1.00;99.90;;;;;;5148033;27;20023;-46
2023/12/06 06:57:22;;;;;;;8.93;4.63;;;1.10;99.90;;;;;;5147782;27;20058;-45
2023/12/06 06:59:48;;;;;;;8.35;4.72;;;1.10;99.90;;;;;;5148026;27;20177;-46
2023/12/06 07:02:14;;;;;;;8.52;4.80;;;1.00;99.90;;;;;;5147916;27;20027;-45
2023/12/06 07:04:41;;;;;;;9.23;5.60;;;1.00;99.90;;;;;;5146648;27;20038;-48
2023/12/06 07:07:06;;;;;;;10.45;4.97;;;1.00;99.90;;;;;;5147254;27;20110;-46
2023/12/06 07:09:32;;;;;;;11.85;4.70;;;0.90;99.90;;;;;;5146574;27;20121;-45
2023/12/06 07:11:58;;;;;;;10.82;5.10;;;1.00;99.90;;;;;;5147599;27;20027;-46
2023/12/06 07:14:23;;;;;;;9.07;4.15;;;1.00;99.90;;;;;;5147586;27;20023;-45
2023/12/06 07:16:49;;;;;;;8.20;4.43;;;0.90;99.90;;;;;;5147491;27;20253;-48
2023/12/06 07:19:15;;;;;;;9.35;4.70;;;1.00;99.90;;;;;;5147339;27;20219;-47
2023/12/06 07:21:40;;;;;;;9.18;5.15;;;0.90;99.90;;;;;;5147396;27;20046;-46
2023/12/06 07:24:06;;;;;;;9.23;5.82;;;0.90;99.90;;;;;;5146496;27;20019;-45
2023/12/06 07:26:32;;;;;;;11.25;4.97;;;0.90;99.90;;;;;;5146774;27;20216;-46
2023/12/06 07:28:58;;;;;;;10.20;5.15;;;0.90;99.90;;;;;;5146120;27;20031;-45
2023/12/06 07:31:23;;;;;;;10.73;5.57;;;1.00;99.90;;;;;;5147191;27;20054;-45
2023/12/06 07:33:50;;;;;;;12.45;5.55;;;1.00;99.90;;;;;;5147312;27;20030;-45
2023/12/06 07:36:16;;;;;;;7.68;4.10;;;1.00;99.90;;;;;;5147257;27;20076;-46
2023/12/06 07:38:42;;;;;;;7.53;4.75;;;0.90;99.90;;;;;;5147001;27;20046;-46
2023/12/06 07:41:08;;;;;;;8.45;4.50;;;0.90;99.90;;;;;;5128985;27;20074;-46
2023/12/06 07:43:33;;;;;;;14.27;8.02;;;0.90;99.90;;;;;;5145903;27;20043;-46
2023/12/06 07:45:59;;;;;;;13.43;5.80;;;0.90;99.90;;;;;;5147087;27;20203;-47
2023/12/06 07:48:25;;;;;;;9.50;4.90;;;0.90;99.90;;;;;;5146995;27;20031;-48
2023/12/06 07:50:53;;;;;;;11.52;5.10;;;0.90;99.90;;;;;;5145834;27;20027;-46
2023/12/06 07:53:19;;;;;;;8.93;5.18;;;0.90;99.90;;;;;;5146922;27;20273;-45
2023/12/06 07:55:45;;;;;;;8.02;4.57;;;1.00;99.90;;;;;;5146581;27;20277;-47
2023/12/06 07:58:11;;;;;;;13.07;5.18;;;1.00;99.90;;;;;;5145829;27;20027;-47
2023/12/06 08:00:37;;;;;;;11.75;5.45;;;1.10;99.90;;;;;;5146422;27;20034;-47
2023/12/06 08:03:03;;;;;;;11.40;5.57;;;1.10;99.90;;;;;;5145908;27;20261;-46
2023/12/06 08:05:29;;;;;;;12.73;6.55;;;1.10;99.90;;;;;;5145587;27;20039;-48
2023/12/06 08:07:55;;;;;;;11.00;5.63;;;1.10;99.90;;;;;;5146172;27;20212;-49
2023/12/06 08:10:26;;;;;;;9.57;5.88;;;1.10;99.90;;;;;;5145531;27;20031;-46
2023/12/06 08:12:54;;;;;;;9.10;5.43;;;1.00;99.90;;;;;;5145756;28;20219;-45
2023/12/06 08:15:20;;;;;;;10.20;5.72;;;1.10;99.90;;;;;;5148959;27;20026;-46
2023/12/06 08:17:46;;;;;;;9.65;5.30;;;1.10;99.90;;;;;;5153441;27;20027;-45
2023/12/06 08:20:12;;;;;;;11.00;5.50;;;1.20;99.90;;;;;;5153413;27;20054;-46
2023/12/06 08:22:37;;;;;;;10.70;5.65;;;1.10;99.90;;;;;;5153527;27;20316;-46
2023/12/06 08:25:03;;;;;;;11.65;6.60;;;1.20;99.90;;;;;;5153397;27;20181;-45
2023/12/06 08:27:29;;;;;;;10.82;5.75;;;1.20;99.90;;;;;;5153394;27;20031;-45
2023/12/06 08:29:55;;;;;;;10.00;5.60;;;1.20;99.90;;;;;;5153352;27;20155;-47
2023/12/06 08:32:21;;;;;;;9.48;5.38;;;1.30;99.90;;;;;;5152527;27;20031;-46
2023/12/06 08:34:48;;;;;;;11.13;5.97;;;1.30;99.90;;;;;;5152945;27;20033;-46
2023/12/06 08:37:13;;;;;;;10.63;5.85;;;1.30;99.90;;;;;;5153241;27;20021;-46
2023/12/06 08:39:39;;;;;;;13.25;8.52;;;1.40;99.90;;;;;;5153191;27;20051;-46
2023/12/06 08:42:05;;;;;;;12.23;7.60;;;1.40;99.90;;;;;;5134907;27;20316;-46
2023/12/06 08:44:31;;;;;;;10.02;6.75;;;1.50;99.90;;;;;;5152526;27;20034;-47
2023/12/06 08:46:57;;;;;;;9.90;7.40;;;1.50;99.90;;;;;;5152838;27;20227;-48
2023/12/06 08:49:22;;;;;;;13.32;7.50;;;1.60;99.90;;;;;;5153035;27;20031;-48
2023/12/06 08:51:48;;;;;;;12.48;6.10;;;1.60;99.90;;;;;;5152865;27;20031;-46
2023/12/06 08:54:14;;;;;;;9.52;5.97;;;1.70;99.90;;;;;;5152934;27;20094;-48
2023/12/06 08:56:39;;;;;;;10.68;6.45;;;1.70;99.90;;;;;;5153145;27;20183;-49
2023/12/06 08:59:06;;;;;;;14.98;7.00;;;1.80;99.90;;;;;;5152678;27;20023;-49
2023/12/06 09:01:31;;;;;;;12.30;6.20;;;1.90;99.90;;;;;;5152533;27;20054;-45
2023/12/06 09:03:57;;;;;;;16.85;7.22;;;2.00;99.90;;;;;;5152933;27;20038;-45
2023/12/06 09:06:23;;;;;;;11.93;6.88;;;2.10;99.90;;;;;;5152990;27;20050;-45
2023/12/06 09:08:49;;;;;;;12.02;7.32;;;2.20;99.90;;;;;;5152368;27;20054;-48
2023/12/06 09:11:23;;;;;;;11.85;6.10;;;2.30;99.90;;;;;;5152559;27;20034;-47
2023/12/06 09:13:49;;;;;;;10.48;6.07;;;2.50;99.90;;;;;;5152963;27;20051;-47
2023/12/06 09:16:15;;;;;;;13.60;6.90;;;2.50;99.90;;;;;;5152908;27;20284;-46
2023/12/06 09:18:41;;;;;;;13.57;7.25;;;2.70;99.90;;;;;;5152159;27;20027;-45
2023/12/06 09:21:06;;;;;;;13.35;7.55;;;2.80;99.90;;;;;;5152225;27;20041;-46
2023/12/06 09:23:32;;;;;;;13.02;7.38;;;2.90;99.90;;;;;;5152665;27;20049;-46
2023/12/06 09:25:59;;;;;;;18.65;8.50;;;3.10;99.90;;;;;;5150713;27;20023;-47
2023/12/06 09:28:25;;;;;;;12.57;7.43;;;3.30;99.90;;;;;;5148902;27;20142;-45
2023/12/06 09:30:51;;;;;;;15.45;8.13;;;3.40;99.90;;;;;;5148263;27;20046;-47
2023/12/06 09:33:18;;;;;;;11.25;6.40;;;3.60;99.90;;;;;;5148679;27;20018;-43
2023/12/06 09:35:44;;;;;;;11.80;7.45;;;3.70;99.90;;;;;;5149146;27;20072;-45
2023/12/06 09:38:09;;;;;;;12.85;7.72;;;3.80;99.90;;;;;;5148727;27;20031;-44
2023/12/06 09:40:35;;;;;;;12.00;6.78;;;3.80;99.90;;;;;;5149091;27;20125;-45
2023/12/06 09:43:02;;;;;;;13.88;6.07;;;3.90;99.90;;;;;;5148307;27;20023;-48
2023/12/06 09:45:29;;;;;;;13.05;6.63;;;3.90;99.90;;;;;;5148763;27;20269;-46
2023/12/06 09:47:55;;;;;;;11.18;6.10;;;4.00;99.90;;;;;;5147692;27;20023;-45
2023/12/06 09:50:20;;;;;;;8.57;5.88;;;4.00;99.90;;;;;;5130577;27;20285;-46
2023/12/06 09:52:51;;;;;;;8.95;5.43;;;4.10;99.90;;;;;;5147366;27;20035;-48
2023/12/06 09:55:18;;;;;;;9.10;5.28;;;4.20;99.90;;;;;;5148612;27;20292;-47
2023/12/06 09:57:46;;;;;;;11.65;6.72;;;4.30;99.90;;;;;;5148454;27;20023;-48
2023/12/06 10:00:13;;;;;;;8.75;5.95;;;4.30;99.90;;;;;;5148553;27;20101;-45
2023/12/06 10:02:55;;;;;;;11.50;6.93;;;4.40;99.90;;;;;;5148242;27;20775;-49
2023/12/06 10:05:21;;;;;;;8.45;5.97;;;4.40;99.90;;;;;;5148237;27;20083;-48
2023/12/06 10:07:47;;;;;;;7.18;3.83;;;4.50;99.90;;;;;;5147778;27;20047;-48
2023/12/06 10:10:15;;;;;;;5.30;3.58;;;4.50;99.90;;;;;;5147372;27;20027;-46
2023/12/06 10:12:53;;;;;;;5.32;3.53;;;4.60;99.90;;;;;;5148061;27;20181;-48
2023/12/06 10:15:19;;;;;;;5.70;3.65;;;4.70;99.90;;;;;;5148280;27;20105;-48
2023/12/06 10:17:48;;;;;;;7.15;3.50;;;4.70;99.90;;;;;;5148300;27;20189;-46
2023/12/06 10:20:14;;;;;;;6.97;3.50;;;4.80;99.90;;;;;;5148129;27;20076;-47
2023/12/06 10:22:40;;;;;;;6.40;3.15;;;4.80;99.90;;;;;;5147543;27;20051;-47
2023/12/06 10:25:07;;;;;;;7.28;3.20;;;4.80;99.90;;;;;;5147819;27;20035;-48
2023/12/06 10:27:34;;;;;;;4.63;2.80;;;4.90;99.90;;;;;;5147968;27;20027;-48
2023/12/06 10:30:04;;;;;;;4.80;2.50;;;4.90;99.90;;;;;;5147175;27;20236;-45
2023/12/06 10:32:30;;;;;;;;;;;5.00;99.90;;;;;;5148134;27;20028;-45
2023/12/06 10:35:02;;;;;;;3.97;2.30;;;5.10;99.90;;;;;;5147637;27;19938;-45
2023/12/06 10:37:28;;;;;;;5.40;2.45;;;5.10;99.90;;;;;;5147481;27;20086;-45
2023/12/06 10:39:59;;;;;;;4.88;2.53;;;5.20;99.90;;;;;;5146707;27;20050;-46
2023/12/06 10:42:33;;;;;;;4.75;2.70;;;5.20;99.90;;;;;;5130365;27;20050;-44
2023/12/06 10:45:00;;;;;;;5.50;2.60;;;5.30;99.90;;;;;;5147612;27;20096;-45
2023/12/06 10:47:26;;;;;;;3.72;2.25;;;5.30;99.90;;;;;;5147499;27;20023;-45
2023/12/06 10:49:51;;;;;;;4.53;2.67;;;5.40;99.90;;;;;;5147712;27;20023;-46
2023/12/06 10:52:17;;;;;;;5.15;2.42;;;5.40;99.90;;;;;;5129332;27;20281;-45
2023/12/06 10:54:43;;;;;;;5.07;2.92;;;5.50;99.90;;;;;;5129221;27;20023;-47
2023/12/06 10:57:08;;;;;;;4.57;2.40;;;5.50;99.90;;;;;;5147587;27;20019;-45
2023/12/06 10:59:34;;;;;;;4.13;2.10;;;5.60;99.90;;;;;;5146369;27;20027;-45
2023/12/06 11:02:00;;;;;;;4.88;2.90;;;5.60;99.90;;;;;;5146546;27;20031;-46
2023/12/06 11:04:27;;;;;;;5.32;2.97;;;5.70;99.90;;;;;;5147503;27;20027;-46
2023/12/06 11:07:17;;;;;;;3.42;2.53;;;5.80;99.90;;;;;;5146114;27;20059;-46
2023/12/06 11:09:57;;;;;;;8.00;2.53;;;5.80;99.90;;;;;;5131646;27;20050;-47
2023/12/06 11:12:41;;;;;;;3.93;2.47;;;5.80;99.90;;;;;;5145962;27;20098;-46
2023/12/06 11:15:20;;;;;;;3.80;2.38;;;5.90;99.90;;;;;;5146834;27;20019;-48
2023/12/06 11:18:03;;;;;;;5.53;2.38;;;5.90;99.90;;;;;;5146004;27;20038;-47
2023/12/06 11:20:30;;;;;;;4.50;2.65;;;6.00;99.90;;;;;;5145898;27;20118;-46
2023/12/06 11:22:56;;;;;;;5.20;2.35;;;6.00;99.90;;;;;;5145844;27;20035;-48
2023/12/06 11:25:22;;;;;;;4.70;2.65;;;6.00;99.90;;;;;;5146572;27;20218;-49
2023/12/06 11:27:49;;;;;;;3.60;2.40;;;6.10;99.90;;;;;;5146313;27;20026;-47
2023/12/06 11:30:16;;;;;;;5.82;2.70;;;6.20;99.90;;;;;;5146972;27;20027;-45
2023/12/06 11:32:43;;;;;;;4.30;2.40;;;6.30;99.90;;;;;;5146633;27;20257;-48
2023/12/06 11:35:09;;;;;;;4.38;2.78;;;6.30;99.90;;;;;;5146530;27;20294;-49
2023/12/06 11:37:34;;;;;;;3.10;2.50;;;6.40;99.90;;;;;;5146673;27;20035;-44
2023/12/06 11:40:13;;;;;;;5.32;2.83;;;6.40;99.90;;;;;;5145611;27;20220;-48
2023/12/06 11:42:39;;;;;;;2.53;1.90;;;6.50;99.90;;;;;;5145442;27;20015;-49
2023/12/06 11:45:06;;;;;;;69.10;29.70;;;6.50;99.90;;;;;;5146504;27;20128;-47
2023/12/06 11:47:38;;;;;;;5.50;3.40;;;6.40;99.90;;;;;;5128182;27;20068;-48
2023/12/06 11:50:04;;;;;;;5.07;3.30;;;6.40;99.90;;;;;;5127920;27;20073;-49
2023/12/06 11:52:29;;;;;;;7.45;2.72;;;6.50;99.90;;;;;;5144975;27;20101;-47
2023/12/06 11:54:55;;;;;;;5.32;2.83;;;6.50;99.90;;;;;;5128178;27;20027;-47
2023/12/06 11:57:21;;;;;;;3.15;2.08;;;6.50;99.90;;;;;;5144805;27;20247;-46
2023/12/06 11:59:47;;;;;;;4.85;2.45;;;6.60;99.90;;;;;;5145742;27;20034;-47
2023/12/06 12:02:12;;;;;;;5.43;2.75;;;6.60;99.90;;;;;;5128356;27;20015;-46
2023/12/06 12:04:38;;;;;;;3.78;2.28;;;6.60;99.90;;;;;;5146188;27;20050;-46
2023/12/06 12:07:04;;;;;;;3.92;2.42;;;6.50;99.90;;;;;;5127686;27;20059;-45
2023/12/06 12:09:30;;;;;;;4.10;2.20;;;6.60;99.90;;;;;;5146066;27;20046;-46
2023/12/06 12:11:56;;;;;;;3.33;2.00;;;6.80;99.90;;;;;;5145160;27;20058;-46
2023/12/06 12:14:22;;;;;;;5.30;2.40;;;7.00;99.90;;;;;;5146278;28;20027;-46
2023/12/06 12:16:47;;;;;;;4.63;2.42;;;7.00;99.90;;;;;;5145555;28;20019;-46
2023/12/06 12:19:13;;;;;;;5.03;2.75;;;7.00;99.90;;;;;;5146073;28;20031;-46
2023/12/06 12:21:39;;;;;;;5.88;2.20;;;7.20;99.90;;;;;;5146070;28;20031;-46
2023/12/06 12:24:06;;;;;;;4.63;2.40;;;7.30;99.90;;;;;;5146200;28;20051;-46
2023/12/06 12:26:31;;;;;;;7.03;2.90;;;7.70;99.90;;;;;;5146286;28;20049;-46
2023/12/06 12:28:58;;;;;;;5.60;2.58;;;8.00;99.90;;;;;;5145994;28;20047;-46
2023/12/06 12:31:26;;;;;;;5.28;2.75;;;8.40;99.90;;;;;;5145982;28;20023;-47
2023/12/06 12:33:52;;;;;;;4.85;2.63;;;8.20;99.90;;;;;;5144936;28;20237;-47
2023/12/06 12:36:17;;;;;;;3.10;2.15;;;8.10;99.90;;;;;;5146183;28;20024;-47
2023/12/06 12:38:44;;;;;;;6.40;2.90;;;8.00;99.90;;;;;;5144936;28;20031;-46
2023/12/06 12:41:13;;;;;;;5.43;2.83;;;8.00;99.90;;;;;;5144993;28;20042;-46
2023/12/06 12:43:39;;;;;;;4.63;2.42;;;8.00;99.90;;;;;;5145439;28;20031;-46
2023/12/06 12:46:05;;;;;;;3.92;2.72;;;8.00;99.90;;;;;;5144938;28;20049;-46
2023/12/06 12:48:30;;;;;;;13.63;5.57;;;7.90;99.90;;;;;;5145533;28;20035;-46